Time;durP1;ratioP1;P1;durP2;ratioP2;P2;SDS_P1;SDS_P2;PMS_P1;PMS_P2;Temp;Humidity;BMP_temperature;BMP_pressure;BME280_temperature;BME280_humidity;BME280_pressure;Samples;Min_cycle;Max_cycle;Signal;HPM_P1;HPM_P2
2022/05/15 18:38:51;;;;;;;31.15;11.75;;;;;;;20.13;61.25;100864.53;4920786;27;5987646;-76
2022/05/15 18:41:19;;;;;;;25.67;11.70;;;;;;;21.04;57.42;100858.53;5110028;28;20063;-76
2022/05/15 18:43:45;;;;;;;16.00;9.60;;;;;;;21.72;54.42;100847.25;5110360;28;20016;-76
2022/05/15 18:46:10;;;;;;;19.85;9.50;;;;;;;22.50;51.67;100850.50;5111443;28;20034;-77
2022/05/15 18:48:36;;;;;;;25.90;10.38;;;;;;;23.11;49.13;100854.28;5094801;28;20032;-77
2022/05/15 18:56:29;;;;;;;20.90;10.60;;;;;;;23.73;46.69;100842.00;5095661;28;20023;-77
2022/05/15 18:58:55;;;;;;;26.33;11.48;;;;;;;24.13;45.60;100839.94;5094092;28;20020;-77
2022/05/15 19:01:21;;;;;;;25.48;9.27;;;;;;;24.08;45.49;100836.34;5092442;28;20028;-77
2022/05/15 19:03:47;;;;;;;18.25;9.73;;;;;;;23.74;46.05;100847.19;5093173;28;20485;-77
2022/05/15 19:06:12;;;;;;;19.13;8.80;;;;;;;24.05;45.04;100842.75;5093925;28;20039;-77
2022/05/15 19:08:38;;;;;;;26.10;10.05;;;;;;;24.31;44.69;100841.44;5093000;28;20031;-77
2022/05/15 19:11:04;;;;;;;20.13;8.95;;;;;;;23.60;46.29;100843.56;5093929;28;20024;-78
2022/05/15 19:13:30;;;;;;;16.33;9.73;;;;;;;23.34;46.86;100847.53;5092337;28;20024;-75
2022/05/15 19:15:57;;;;;;;16.02;9.32;;;;;;;23.18;47.49;100840.38;5092829;28;20362;-75
2022/05/15 19:18:23;;;;;;;21.85;10.43;;;;;;;24.32;44.29;100839.44;5092552;28;20032;-77
2022/05/15 19:20:49;;;;;;;18.83;9.23;;;;;;;24.60;43.25;100833.00;5105407;28;20039;-76
2022/05/15 19:23:15;;;;;;;19.27;9.38;;;;;;;24.72;42.71;100843.72;5126582;28;20024;-75
2022/05/15 19:25:41;;;;;;;19.70;9.13;;;;;;;24.45;43.08;100831.47;5112146;28;20048;-76
2022/05/15 19:28:08;;;;;;;23.42;10.00;;;;;;;24.42;43.28;100840.66;5122412;28;20084;-80
2022/05/15 19:30:35;;;;;;;24.13;10.80;;;;;;;24.46;43.38;100828.25;5082225;28;20028;-77
2022/05/15 19:33:01;;;;;;;19.98;8.50;;;;;;;24.41;43.49;100833.47;5127096;28;20023;-77
2022/05/15 19:35:27;;;;;;;19.30;9.43;;;;;;;24.26;43.58;100829.94;5129596;28;20102;-74
2022/05/15 19:37:53;;;;;;;19.52;9.95;;;;;;;24.18;43.87;100822.75;5130242;28;20142;-75
2022/05/15 19:40:18;;;;;;;22.75;9.00;;;;;;;24.08;44.11;100836.34;5124346;28;20092;-75
2022/05/15 19:42:45;;;;;;;18.08;9.10;;;;;;;24.08;43.91;100829.97;5116763;28;20030;-75
2022/05/15 19:45:11;;;;;;;22.77;9.52;;;;;;;24.49;42.96;100826.66;5094842;28;20106;-75
2022/05/15 19:47:37;;;;;;;18.63;9.35;;;;;;;24.47;43.01;100826.25;5109312;28;20119;-88
2022/05/15 19:50:05;;;;;;;15.13;8.70;;;;;;;24.63;42.48;100830.16;5097619;28;20107;-75
2022/05/15 19:52:31;;;;;;;14.85;7.90;;;;;;;23.87;44.34;100818.84;5108194;28;20470;-75
2022/05/15 19:54:57;;;;;;;14.73;8.18;;;;;;;24.40;42.83;100829.88;5106310;28;20036;-75
2022/05/15 19:57:24;;;;;;;17.55;9.20;;;;;;;24.42;42.83;100826.69;5072981;28;20024;-76
2022/05/15 19:59:50;;;;;;;14.60;7.57;;;;;;;24.69;42.29;100833.34;5080174;28;20031;-84
2022/05/15 20:02:16;;;;;;;19.67;11.02;;;;;;;24.25;43.44;100823.53;5064490;28;20039;-75
2022/05/15 20:12:58;;;;;;;15.15;7.03;;;;;;;23.64;44.63;100822.88;5109856;28;20134;-79
2022/05/15 20:15:27;;;;;;;12.88;6.88;;;;;;;23.67;44.39;100824.06;5082261;28;20036;-78
2022/05/15 20:17:54;;;;;;;16.05;6.53;;;;;;;23.66;44.70;100819.69;5079353;28;20591;-78
2022/05/15 20:20:20;;;;;;;20.02;7.60;;;;;;;23.56;44.78;100823.25;5079241;28;20032;-77
2022/05/15 20:22:46;;;;;;;17.42;6.90;;;;;;;23.53;45.04;100822.06;5061424;28;20028;-76
2022/05/15 20:25:12;;;;;;;12.45;7.10;;;;;;;23.42;44.91;100824.84;5085596;28;20369;-76
2022/05/15 20:27:38;;;;;;;12.95;5.95;;;;;;;23.26;45.62;100810.50;5102653;28;20513;-78
2022/05/15 20:30:05;;;;;;;14.95;7.55;;;;;;;23.11;46.01;100815.25;5088586;28;20064;-83
2022/05/15 20:32:31;;;;;;;12.13;6.85;;;;;;;22.98;46.49;100808.50;5100454;28;20061;-86
2022/05/15 20:34:57;;;;;;;12.38;6.45;;;;;;;23.12;46.01;100822.44;5098088;28;20036;-78
2022/05/15 20:37:22;;;;;;;9.80;5.47;;;;;;;23.05;46.08;100818.84;5096707;28;20075;-80
2022/05/15 20:39:48;;;;;;;11.65;6.57;;;;;;;23.20;45.78;100824.06;5098156;28;20060;-78
2022/05/15 20:42:14;;;;;;;17.30;6.50;;;;;;;23.35;45.70;100826.81;5106720;28;20082;-87
2022/05/15 20:44:40;;;;;;;13.57;6.68;;;;;;;23.50;45.05;100812.50;5096277;28;20093;-77
2022/05/15 20:47:06;;;;;;;10.75;5.82;;;;;;;23.42;45.29;100815.69;5076770;28;20028;-78
2022/05/15 20:49:31;;;;;;;14.45;6.57;;;;;;;23.39;45.28;100816.50;5094923;28;20031;-79
2022/05/15 20:51:57;;;;;;;12.95;5.55;;;;;;;23.26;46.09;100813.28;5093403;28;20473;-78
2022/05/15 20:54:22;;;;;;;19.10;6.55;;;;;;;23.39;45.47;100816.50;5073636;28;20028;-90
2022/05/15 20:56:50;;;;;;;11.73;6.50;;;;;;;23.29;45.94;100814.50;5092528;28;20059;-76
2022/05/15 20:59:17;;;;;;;11.88;6.35;;;;;;;23.62;44.71;100819.69;5098903;28;20028;-76
2022/05/15 21:01:44;;;;;;;13.18;6.18;;;;;;;23.28;45.75;100818.50;5104994;28;20031;-77
2022/05/15 21:04:10;;;;;;;11.82;5.95;;;;;;;23.22;45.85;100824.44;5095217;28;20043;-78
2022/05/15 21:06:36;;;;;;;12.43;6.32;;;;;;;23.38;45.52;100820.47;5094434;28;20061;-76
2022/05/15 21:09:03;;;;;;;12.85;6.00;;;;;;;23.40;45.34;100812.50;5076482;28;20034;-77
2022/05/15 21:11:29;;;;;;;10.43;5.65;;;;;;;23.46;44.85;100814.50;5110259;28;20165;-76
2022/05/15 21:13:55;;;;;;;17.17;8.20;;;;;;;23.40;44.91;100802.13;5109763;28;20032;-76
2022/05/15 21:16:21;;;;;;;13.13;5.90;;;;;;;23.30;45.45;100807.72;5105244;28;20038;-77
2022/05/15 21:18:46;;;;;;;15.20;6.40;;;;;;;23.06;46.30;100801.75;5116449;28;20032;-76
2022/05/15 21:21:13;;;;;;;18.10;12.13;;;;;;;23.00;46.74;100806.13;5101417;28;20107;-86
2022/05/15 21:23:38;;;;;;;22.08;11.77;;;;;;;22.85;46.90;100808.06;5114647;28;20026;-76
2022/05/15 21:26:04;;;;;;;24.10;15.38;;;;;;;22.82;46.85;100810.81;5107975;28;20028;-86
2022/05/15 21:28:30;;;;;;;25.02;17.80;;;;;;;23.06;46.37;100804.53;5081475;28;20052;-75
2022/05/15 21:30:56;;;;;;;18.90;11.65;;;;;;;23.06;46.49;100803.75;5079397;28;20028;-76
2022/05/15 21:33:22;;;;;;;18.25;9.80;;;;;;;22.94;46.74;100805.69;5079046;28;20039;-76
2022/05/15 21:35:47;;;;;;;18.33;9.75;;;;;;;23.11;46.07;100795.75;5079401;28;20028;-94
2022/05/15 21:43:47;;;;;;;17.63;10.15;;;;;;;23.07;46.36;100792.19;5112140;28;20070;-76
2022/05/15 21:46:12;;;;;;;13.18;7.32;;;;;;;23.13;46.32;100787.03;5119399;28;20376;-76
2022/05/15 21:48:39;;;;;;;15.50;7.35;;;;;;;23.24;46.09;100791.38;5123980;28;20043;-93
2022/05/15 21:51:05;;;;;;;15.35;8.43;;;;;;;23.25;45.75;100792.97;5089965;28;20028;-75
2022/05/15 21:53:31;;;;;;;30.10;14.40;;;;;;;23.19;46.29;100796.56;5097882;28;20488;-90
2022/05/15 21:55:56;;;;;;;18.33;8.38;;;;;;;23.05;46.78;100794.59;5080077;28;20056;-77
2022/05/15 21:58:22;;;;;;;18.15;10.93;;;;;;;23.25;46.15;100797.75;5093325;28;20054;-75
2022/05/15 22:00:49;;;;;;;17.10;10.02;;;;;;;23.28;46.43;100798.97;5094748;28;20115;-76
2022/05/15 22:03:16;;;;;;;15.52;11.05;;;;;;;23.41;46.38;100797.34;5099531;28;20399;-83
2022/05/15 22:05:42;;;;;;;17.48;8.38;;;;;;;23.75;45.41;100783.81;5097507;28;20066;-81
2022/05/15 22:08:09;;;;;;;21.88;10.80;;;;;;;23.62;45.80;100783.44;5096093;28;20035;-76
2022/05/15 22:10:36;;;;;;;13.57;7.43;;;;;;;23.97;44.65;100790.13;5085945;28;20050;-85
2022/05/15 22:13:03;;;;;;;13.15;6.70;;;;;;;24.00;44.80;100784.53;5097380;28;20035;-77
2022/05/15 22:15:29;;;;;;;13.77;7.88;;;;;;;23.96;44.55;100774.59;5095005;28;20020;-90
2022/05/15 22:17:56;;;;;;;11.35;7.90;;;;;;;24.10;44.53;100782.91;5077510;28;20139;-76
2022/05/15 22:20:22;;;;;;;14.90;7.35;;;;;;;24.11;44.23;100790.09;5092322;28;20031;-76
2022/05/15 22:22:47;;;;;;;14.38;7.78;;;;;;;23.72;45.43;100776.22;5096889;28;20024;-77
2022/05/15 22:25:13;;;;;;;11.25;8.52;;;;;;;23.48;46.17;100769.47;5097320;28;20118;-76
2022/05/15 22:27:39;;;;;;;18.10;13.40;;;;;;;23.70;46.03;100767.47;5096144;28;20619;-96
2022/05/15 22:30:07;;;;;;;15.02;11.57;;;;;;;23.74;46.71;100762.69;5094253;28;20382;-93
2022/05/15 22:32:33;;;;;;;16.73;10.10;;;;;;;23.79;47.07;100770.63;5091922;28;20554;-77
2022/05/15 22:34:58;;;;;;;13.23;9.05;;;;;;;23.97;46.70;100767.81;5101806;28;20028;-77
2022/05/15 22:37:27;;;;;;;15.13;8.48;;;;;;;24.14;46.10;100766.94;5093734;28;20048;-77
2022/05/15 22:39:53;;;;;;;14.80;9.67;;;;;;;24.23;46.18;100767.28;5093077;28;20047;-78
2022/05/15 22:42:19;;;;;;;13.02;8.88;;;;;;;24.30;46.06;100770.06;5093612;28;20734;-78
2022/05/15 22:44:46;;;;;;;19.55;12.45;;;;;;;24.41;46.08;100774.81;5097805;28;20454;-77
2022/05/15 22:47:11;;;;;;;11.90;8.90;;;;;;;24.75;45.05;100775.81;5091560;28;20057;-96
2022/05/15 22:49:37;;;;;;;17.13;9.52;;;;;;;24.56;46.20;100765.97;5107280;28;20031;-77
2022/05/15 22:52:03;;;;;;;17.48;9.60;;;;;;;24.70;45.54;100759.50;5094230;28;20092;-77
2022/05/15 22:54:30;;;;;;;13.27;9.65;;;;;;;24.66;46.01;100766.31;5101190;28;20039;-96
2022/05/15 22:56:59;;;;;;;12.60;9.63;;;;;;;24.78;45.71;100763.03;5087374;28;20081;-77
2022/05/15 22:59:25;;;;;;;11.55;9.55;;;;;;;24.77;45.65;100762.25;5079188;28;20047;-94
2022/05/15 23:01:51;;;;;;;21.55;10.32;;;;;;;24.70;45.78;100758.69;5101340;28;20032;-86
2022/05/15 23:04:17;;;;;;;15.07;9.45;;;;;;;24.65;46.41;100757.16;5100178;28;20032;-92
2022/05/15 23:09:30;;;;;;;14.10;10.32;;;;;;;24.72;46.29;100750.72;5095170;28;20553;-77
2022/05/15 23:11:56;;;;;;;12.38;10.27;;;;;;;24.58;46.48;100749.59;5109613;28;20485;-77
2022/05/15 23:14:21;;;;;;;12.88;10.75;;;;;;;24.71;46.41;100749.94;5098753;28;20152;-87
2022/05/15 23:16:47;;;;;;;14.75;11.15;;;;;;;24.71;46.35;100747.13;5101154;28;20382;-78
2022/05/15 23:19:13;;;;;;;13.75;10.73;;;;;;;24.37;47.70;100741.34;5099658;28;20449;-77
2022/05/15 23:21:40;;;;;;;12.93;10.35;;;;;;;24.17;48.25;100737.41;5091547;28;20020;-77
2022/05/15 23:24:07;;;;;;;15.43;10.57;;;;;;;24.17;47.68;100738.22;5095928;28;20036;-82
2022/05/15 23:26:33;;;;;;;11.55;10.35;;;;;;;24.11;48.14;100737.06;5101390;28;20059;-77
2022/05/15 23:29:00;;;;;;;15.00;9.45;;;;;;;24.38;47.13;100730.97;5080531;28;20484;-78
2022/05/15 23:31:26;;;;;;;12.60;9.20;;;;;;;24.27;47.47;100728.22;5097179;28;20024;-77
2022/05/15 23:33:51;;;;;;;39.58;30.63;;;;;;;24.08;47.90;100730.28;5097756;28;20043;-78
2022/05/15 23:36:17;;;;;;;13.10;11.02;;;;;;;23.98;48.60;100727.53;5096213;28;20020;-77
2022/05/15 23:38:43;;;;;;;10.55;7.65;;;;;;;23.92;49.05;100731.94;5096601;28;20421;-77
2022/05/15 23:41:09;;;;;;;9.82;7.65;;;;;;;24.08;48.82;100724.69;5096131;28;20032;-77
2022/05/15 23:43:35;;;;;;;7.28;6.57;;;;;;;24.34;47.87;100720.63;5096866;28;20097;-77
2022/05/15 23:46:00;;;;;;;7.15;6.07;;;;;;;24.05;48.71;100724.72;5103142;28;20036;-77
2022/05/15 23:48:27;;;;;;;8.43;5.75;;;;;;;24.04;49.09;100717.56;5098740;28;20386;-76
2022/05/15 23:50:53;;;;;;;7.55;6.13;;;;;;;24.03;48.99;100727.09;5096247;28;20557;-77
2022/05/15 23:53:18;;;;;;;7.55;5.50;;;;;;;23.77;49.93;100729.19;5096379;28;20052;-77
2022/05/15 23:55:44;;;;;;;8.20;6.10;;;;;;;23.87;49.34;100721.97;5114986;28;20059;-77
2022/05/15 23:58:10;;;;;;;6.95;5.32;;;;;;;23.86;49.21;100727.97;5096255;28;20036;-77
